sensor_id;sensor_type;location;lat;lon;timestamp;temperature;humidity
11491;DHT22;5802;52.832;4.758;2023-07-28T00:00:20;23.60;58.70
11491;DHT22;5802;52.832;4.758;2023-07-28T00:02:47;23.50;58.60
11491;DHT22;5802;52.832;4.758;2023-07-28T00:05:14;23.50;58.70
11491;DHT22;5802;52.832;4.758;2023-07-28T00:07:40;23.50;58.60
11491;DHT22;5802;52.832;4.758;2023-07-28T00:10:08;23.50;58.40
11491;DHT22;5802;52.832;4.758;2023-07-28T00:12:36;23.50;58.40
11491;DHT22;5802;52.832;4.758;2023-07-28T00:15:04;23.50;58.40
11491;DHT22;5802;52.832;4.758;2023-07-28T00:17:30;23.50;58.30
11491;DHT22;5802;52.832;4.758;2023-07-28T00:19:57;23.50;58.40
11491;DHT22;5802;52.832;4.758;2023-07-28T00:22:24;23.50;58.30
11491;DHT22;5802;52.832;4.758;2023-07-28T00:24:50;23.50;58.40
11491;DHT22;5802;52.832;4.758;2023-07-28T00:27:17;23.50;58.40
11491;DHT22;5802;52.832;4.758;2023-07-28T00:29:45;23.50;58.40
11491;DHT22;5802;52.832;4.758;2023-07-28T00:32:12;23.50;58.40
11491;DHT22;5802;52.832;4.758;2023-07-28T00:34:38;23.50;58.40
11491;DHT22;5802;52.832;4.758;2023-07-28T00:37:05;23.50;58.40
11491;DHT22;5802;52.832;4.758;2023-07-28T00:39:32;23.50;58.50
11491;DHT22;5802;52.832;4.758;2023-07-28T00:41:58;23.50;58.90
11491;DHT22;5802;52.832;4.758;2023-07-28T00:44:25;23.50;59.00
11491;DHT22;5802;52.832;4.758;2023-07-28T00:46:53;23.50;59.90
11491;DHT22;5802;52.832;4.758;2023-07-28T00:49:20;23.50;60.60
11491;DHT22;5802;52.832;4.758;2023-07-28T00:51:48;23.50;61.70
11491;DHT22;5802;52.832;4.758;2023-07-28T00:54:16;23.50;61.60
11491;DHT22;5802;52.832;4.758;2023-07-28T00:56:43;23.50;60.60
11491;DHT22;5802;52.832;4.758;2023-07-28T00:59:11;23.40;60.00
11491;DHT22;5802;52.832;4.758;2023-07-28T01:01:38;23.50;58.90
11491;DHT22;5802;52.832;4.758;2023-07-28T01:04:06;23.50;58.10
11491;DHT22;5802;52.832;4.758;2023-07-28T01:06:43;23.50;58.10
11491;DHT22;5802;52.832;4.758;2023-07-28T01:09:15;23.50;58.10
11491;DHT22;5802;52.832;4.758;2023-07-28T01:11:53;23.50;58.10
11491;DHT22;5802;52.832;4.758;2023-07-28T01:14:20;23.50;58.10
11491;DHT22;5802;52.832;4.758;2023-07-28T01:16:46;23.40;58.10
11491;DHT22;5802;52.832;4.758;2023-07-28T01:19:16;23.40;58.10
11491;DHT22;5802;52.832;4.758;2023-07-28T01:21:47;23.40;58.10
11491;DHT22;5802;52.832;4.758;2023-07-28T01:24:19;23.40;58.00
11491;DHT22;5802;52.832;4.758;2023-07-28T01:26:48;23.40;58.00
11491;DHT22;5802;52.832;4.758;2023-07-28T01:29:16;23.40;58.10
11491;DHT22;5802;52.832;4.758;2023-07-28T01:31:46;23.40;58.10
11491;DHT22;5802;52.832;4.758;2023-07-28T01:34:14;23.40;58.00
11491;DHT22;5802;52.832;4.758;2023-07-28T01:36:40;23.40;58.00
11491;DHT22;5802;52.832;4.758;2023-07-28T01:39:07;23.40;58.10
11491;DHT22;5802;52.832;4.758;2023-07-28T01:41:34;23.40;58.00
11491;DHT22;5802;52.832;4.758;2023-07-28T01:44:02;23.40;58.60
11491;DHT22;5802;52.832;4.758;2023-07-28T01:46:28;23.40;57.90
11491;DHT22;5802;52.832;4.758;2023-07-28T01:48:55;23.40;58.00
11491;DHT22;5802;52.832;4.758;2023-07-28T01:51:22;23.40;57.90
11491;DHT22;5802;52.832;4.758;2023-07-28T01:53:48;23.40;58.00
11491;DHT22;5802;52.832;4.758;2023-07-28T01:56:15;23.40;57.90
11491;DHT22;5802;52.832;4.758;2023-07-28T01:58:42;23.40;58.00
11491;DHT22;5802;52.832;4.758;2023-07-28T02:01:12;23.40;57.90
11491;DHT22;5802;52.832;4.758;2023-07-28T02:03:39;23.40;57.90
11491;DHT22;5802;52.832;4.758;2023-07-28T02:06:06;23.40;57.90
11491;DHT22;5802;52.832;4.758;2023-07-28T02:08:33;23.40;57.90
11491;DHT22;5802;52.832;4.758;2023-07-28T02:10:59;23.40;57.90
11491;DHT22;5802;52.832;4.758;2023-07-28T02:13:26;23.40;57.90
11491;DHT22;5802;52.832;4.758;2023-07-28T02:15:53;23.40;57.90
11491;DHT22;5802;52.832;4.758;2023-07-28T02:18:21;23.40;57.90
11491;DHT22;5802;52.832;4.758;2023-07-28T02:20:48;23.40;57.90
11491;DHT22;5802;52.832;4.758;2023-07-28T02:23:15;23.40;58.60
11491;DHT22;5802;52.832;4.758;2023-07-28T02:25:41;23.40;58.00
11491;DHT22;5802;52.832;4.758;2023-07-28T02:28:10;23.40;58.00
11491;DHT22;5802;52.832;4.758;2023-07-28T02:30:36;23.40;58.20
11491;DHT22;5802;52.832;4.758;2023-07-28T02:33:03;23.40;59.80
11491;DHT22;5802;52.832;4.758;2023-07-28T02:35:31;23.30;64.30
11491;DHT22;5802;52.832;4.758;2023-07-28T02:37:58;23.40;64.50
11491;DHT22;5802;52.832;4.758;2023-07-28T02:40:25;23.30;66.60
11491;DHT22;5802;52.832;4.758;2023-07-28T02:42:51;23.30;59.50
11491;DHT22;5802;52.832;4.758;2023-07-28T02:45:19;23.40;57.90
11491;DHT22;5802;52.832;4.758;2023-07-28T02:47:45;23.30;57.90
11491;DHT22;5802;52.832;4.758;2023-07-28T02:50:12;23.30;57.90
11491;DHT22;5802;52.832;4.758;2023-07-28T02:52:40;23.30;57.90
11491;DHT22;5802;52.832;4.758;2023-07-28T02:55:07;23.30;57.90
11491;DHT22;5802;52.832;4.758;2023-07-28T02:57:34;23.30;57.80
11491;DHT22;5802;52.832;4.758;2023-07-28T03:00:01;23.30;57.90
11491;DHT22;5802;52.832;4.758;2023-07-28T03:02:28;23.30;57.90
11491;DHT22;5802;52.832;4.758;2023-07-28T03:04:55;23.30;57.80
11491;DHT22;5802;52.832;4.758;2023-07-28T03:07:21;23.30;57.80
11491;DHT22;5802;52.832;4.758;2023-07-28T03:09:49;23.30;57.80
11491;DHT22;5802;52.832;4.758;2023-07-28T03:12:16;23.30;57.90
11491;DHT22;5802;52.832;4.758;2023-07-28T03:14:43;23.30;57.80
11491;DHT22;5802;52.832;4.758;2023-07-28T03:17:09;23.30;57.80
11491;DHT22;5802;52.832;4.758;2023-07-28T03:19:36;23.30;57.90
11491;DHT22;5802;52.832;4.758;2023-07-28T03:22:03;23.30;57.90
11491;DHT22;5802;52.832;4.758;2023-07-28T03:24:30;23.30;57.80
11491;DHT22;5802;52.832;4.758;2023-07-28T03:26:58;23.30;57.90
11491;DHT22;5802;52.832;4.758;2023-07-28T03:29:24;23.30;57.90
11491;DHT22;5802;52.832;4.758;2023-07-28T03:31:51;23.30;57.90
11491;DHT22;5802;52.832;4.758;2023-07-28T03:34:17;23.30;58.00
11491;DHT22;5802;52.832;4.758;2023-07-28T03:36:44;23.30;58.00
11491;DHT22;5802;52.832;4.758;2023-07-28T03:39:11;23.30;59.30
11491;DHT22;5802;52.832;4.758;2023-07-28T03:41:38;23.30;59.90
11491;DHT22;5802;52.832;4.758;2023-07-28T03:44:06;23.30;59.30
11491;DHT22;5802;52.832;4.758;2023-07-28T03:46:32;23.30;61.70
11491;DHT22;5802;52.832;4.758;2023-07-28T03:48:59;23.30;62.80
11491;DHT22;5802;52.832;4.758;2023-07-28T03:51:26;23.20;59.80
11491;DHT22;5802;52.832;4.758;2023-07-28T03:53:53;23.20;59.60
11491;DHT22;5802;52.832;4.758;2023-07-28T03:56:19;23.20;60.40
11491;DHT22;5802;52.832;4.758;2023-07-28T03:58:46;23.30;58.20
11491;DHT22;5802;52.832;4.758;2023-07-28T04:01:14;23.30;57.80
11491;DHT22;5802;52.832;4.758;2023-07-28T04:03:41;23.30;57.80
11491;DHT22;5802;52.832;4.758;2023-07-28T04:06:10;23.30;57.80
11491;DHT22;5802;52.832;4.758;2023-07-28T04:08:38;23.30;57.70
11491;DHT22;5802;52.832;4.758;2023-07-28T04:11:04;23.30;57.80
11491;DHT22;5802;52.832;4.758;2023-07-28T04:13:31;23.30;57.80
11491;DHT22;5802;52.832;4.758;2023-07-28T04:15:58;23.20;57.70
11491;DHT22;5802;52.832;4.758;2023-07-28T04:18:26;23.30;57.80
11491;DHT22;5802;52.832;4.758;2023-07-28T04:20:53;23.30;57.80
11491;DHT22;5802;52.832;4.758;2023-07-28T04:23:20;23.30;58.40
11491;DHT22;5802;52.832;4.758;2023-07-28T04:25:46;23.20;57.80
11491;DHT22;5802;52.832;4.758;2023-07-28T04:28:13;23.20;57.90
11491;DHT22;5802;52.832;4.758;2023-07-28T04:30:39;23.20;58.00
11491;DHT22;5802;52.832;4.758;2023-07-28T04:33:06;23.20;58.00
11491;DHT22;5802;52.832;4.758;2023-07-28T04:35:34;23.30;58.10
11491;DHT22;5802;52.832;4.758;2023-07-28T04:38:01;23.30;58.00
11491;DHT22;5802;52.832;4.758;2023-07-28T04:40:27;23.30;58.00
11491;DHT22;5802;52.832;4.758;2023-07-28T04:42:54;23.30;58.10
11491;DHT22;5802;52.832;4.758;2023-07-28T04:45:21;23.30;58.00
11491;DHT22;5802;52.832;4.758;2023-07-28T04:47:47;23.30;58.00
11491;DHT22;5802;52.832;4.758;2023-07-28T04:50:14;23.30;58.00
11491;DHT22;5802;52.832;4.758;2023-07-28T04:52:42;23.30;58.00
11491;DHT22;5802;52.832;4.758;2023-07-28T04:55:09;23.30;58.10
11491;DHT22;5802;52.832;4.758;2023-07-28T04:57:35;23.20;58.00
11491;DHT22;5802;52.832;4.758;2023-07-28T05:00:02;23.20;58.00
11491;DHT22;5802;52.832;4.758;2023-07-28T05:02:30;23.30;58.10
11491;DHT22;5802;52.832;4.758;2023-07-28T05:04:57;23.30;58.10
11491;DHT22;5802;52.832;4.758;2023-07-28T05:07:23;23.20;58.10
11491;DHT22;5802;52.832;4.758;2023-07-28T05:09:52;23.30;58.20
11491;DHT22;5802;52.832;4.758;2023-07-28T05:12:18;23.20;58.20
11491;DHT22;5802;52.832;4.758;2023-07-28T05:14:46;23.30;58.40
11491;DHT22;5802;52.832;4.758;2023-07-28T05:17:12;23.20;58.40
11491;DHT22;5802;52.832;4.758;2023-07-28T05:19:39;23.30;58.70
11491;DHT22;5802;52.832;4.758;2023-07-28T05:22:06;23.30;58.80
11491;DHT22;5802;52.832;4.758;2023-07-28T05:24:33;23.30;59.00
11491;DHT22;5802;52.832;4.758;2023-07-28T05:27:01;23.30;59.20
11491;DHT22;5802;52.832;4.758;2023-07-28T05:29:27;23.30;59.30
11491;DHT22;5802;52.832;4.758;2023-07-28T05:31:54;23.30;59.40
11491;DHT22;5802;52.832;4.758;2023-07-28T05:34:21;23.30;59.50
11491;DHT22;5802;52.832;4.758;2023-07-28T05:36:47;23.30;59.50
11491;DHT22;5802;52.832;4.758;2023-07-28T05:39:14;23.30;59.60
11491;DHT22;5802;52.832;4.758;2023-07-28T05:41:41;23.30;59.70
11491;DHT22;5802;52.832;4.758;2023-07-28T05:44:09;23.30;59.90
11491;DHT22;5802;52.832;4.758;2023-07-28T05:46:35;23.30;60.00
11491;DHT22;5802;52.832;4.758;2023-07-28T05:49:02;23.30;60.30
11491;DHT22;5802;52.832;4.758;2023-07-28T05:51:29;23.30;60.50
11491;DHT22;5802;52.832;4.758;2023-07-28T05:53:55;23.30;60.80
11491;DHT22;5802;52.832;4.758;2023-07-28T05:56:22;23.30;62.00
11491;DHT22;5802;52.832;4.758;2023-07-28T05:58:49;23.40;61.90
11491;DHT22;5802;52.832;4.758;2023-07-28T06:01:17;23.40;61.70
11491;DHT22;5802;52.832;4.758;2023-07-28T06:03:45;23.30;66.10
11491;DHT22;5802;52.832;4.758;2023-07-28T06:06:12;23.30;60.20
11491;DHT22;5802;52.832;4.758;2023-07-28T06:08:39;23.40;60.20
11491;DHT22;5802;52.832;4.758;2023-07-28T06:11:06;23.40;60.20
11491;DHT22;5802;52.832;4.758;2023-07-28T06:13:32;23.40;60.20
11491;DHT22;5802;52.832;4.758;2023-07-28T06:15:59;23.40;60.10
11491;DHT22;5802;52.832;4.758;2023-07-28T06:18:27;23.40;60.10
11491;DHT22;5802;52.832;4.758;2023-07-28T06:20:54;23.40;60.10
11491;DHT22;5802;52.832;4.758;2023-07-28T06:23:20;23.50;60.10
11491;DHT22;5802;52.832;4.758;2023-07-28T06:25:47;23.50;60.00
11491;DHT22;5802;52.832;4.758;2023-07-28T06:28:14;23.50;60.00
11491;DHT22;5802;52.832;4.758;2023-07-28T06:30:40;23.50;59.90
11491;DHT22;5802;52.832;4.758;2023-07-28T06:33:07;23.60;59.90
11491;DHT22;5802;52.832;4.758;2023-07-28T06:35:35;23.60;59.70
11491;DHT22;5802;52.832;4.758;2023-07-28T06:38:02;23.60;59.70
11491;DHT22;5802;52.832;4.758;2023-07-28T06:40:29;23.60;59.60
11491;DHT22;5802;52.832;4.758;2023-07-28T06:42:55;23.60;59.60
11491;DHT22;5802;52.832;4.758;2023-07-28T06:45:22;23.60;59.50
11491;DHT22;5802;52.832;4.758;2023-07-28T06:47:49;23.60;59.40
11491;DHT22;5802;52.832;4.758;2023-07-28T06:50:16;23.70;59.40
11491;DHT22;5802;52.832;4.758;2023-07-28T06:52:45;23.70;59.40
11491;DHT22;5802;52.832;4.758;2023-07-28T06:55:13;23.70;59.30
11491;DHT22;5802;52.832;4.758;2023-07-28T06:57:40;23.80;59.20
11491;DHT22;5802;52.832;4.758;2023-07-28T07:00:07;23.80;59.20
11491;DHT22;5802;52.832;4.758;2023-07-28T07:02:35;23.80;59.20
11491;DHT22;5802;52.832;4.758;2023-07-28T07:05:02;23.80;59.00
11491;DHT22;5802;52.832;4.758;2023-07-28T07:07:29;23.80;59.00
11491;DHT22;5802;52.832;4.758;2023-07-28T07:09:57;23.90;59.00
11491;DHT22;5802;52.832;4.758;2023-07-28T07:12:23;23.90;58.90
11491;DHT22;5802;52.832;4.758;2023-07-28T07:14:50;23.90;60.20
11491;DHT22;5802;52.832;4.758;2023-07-28T07:17:17;24.00;58.80
11491;DHT22;5802;52.832;4.758;2023-07-28T07:19:44;24.00;58.60
11491;DHT22;5802;52.832;4.758;2023-07-28T07:22:10;24.10;58.60
11491;DHT22;5802;52.832;4.758;2023-07-28T07:24:37;24.10;58.50
11491;DHT22;5802;52.832;4.758;2023-07-28T07:27:06;24.10;58.30
11491;DHT22;5802;52.832;4.758;2023-07-28T07:29:36;24.20;58.30
11491;DHT22;5802;52.832;4.758;2023-07-28T07:32:04;24.20;58.20
11491;DHT22;5802;52.832;4.758;2023-07-28T07:34:31;24.20;58.10
11491;DHT22;5802;52.832;4.758;2023-07-28T07:36:58;24.30;58.30
11491;DHT22;5802;52.832;4.758;2023-07-28T07:39:25;24.30;58.40
11491;DHT22;5802;52.832;4.758;2023-07-28T07:41:51;24.30;58.40
11491;DHT22;5802;52.832;4.758;2023-07-28T07:44:19;24.40;58.50
11491;DHT22;5802;52.832;4.758;2023-07-28T07:46:46;24.40;58.60
11491;DHT22;5802;52.832;4.758;2023-07-28T07:49:12;24.50;58.70
11491;DHT22;5802;52.832;4.758;2023-07-28T07:51:39;24.50;58.70
11491;DHT22;5802;52.832;4.758;2023-07-28T07:54:06;24.50;58.70
11491;DHT22;5802;52.832;4.758;2023-07-28T07:56:32;24.50;58.70
11491;DHT22;5802;52.832;4.758;2023-07-28T07:58:59;24.60;58.80
11491;DHT22;5802;52.832;4.758;2023-07-28T08:01:27;24.60;58.90
11491;DHT22;5802;52.832;4.758;2023-07-28T08:03:54;24.70;59.80
11491;DHT22;5802;52.832;4.758;2023-07-28T08:06:20;24.70;58.90
11491;DHT22;5802;52.832;4.758;2023-07-28T08:08:47;24.70;58.70
11491;DHT22;5802;52.832;4.758;2023-07-28T08:11:16;24.80;58.70
11491;DHT22;5802;52.832;4.758;2023-07-28T08:13:42;24.80;58.80
11491;DHT22;5802;52.832;4.758;2023-07-28T08:16:10;24.80;58.90
11491;DHT22;5802;52.832;4.758;2023-07-28T08:18:38;24.90;59.00
11491;DHT22;5802;52.832;4.758;2023-07-28T08:21:05;24.90;61.50
11491;DHT22;5802;52.832;4.758;2023-07-28T08:23:32;24.90;59.10
11491;DHT22;5802;52.832;4.758;2023-07-28T08:25:58;25.00;58.90
11491;DHT22;5802;52.832;4.758;2023-07-28T08:28:25;25.00;58.90
11491;DHT22;5802;52.832;4.758;2023-07-28T08:30:55;25.00;58.90
11491;DHT22;5802;52.832;4.758;2023-07-28T08:33:23;25.10;59.00
11491;DHT22;5802;52.832;4.758;2023-07-28T08:35:51;25.10;58.80
11491;DHT22;5802;52.832;4.758;2023-07-28T08:38:18;25.10;58.80
11491;DHT22;5802;52.832;4.758;2023-07-28T08:40:44;25.20;58.70
11491;DHT22;5802;52.832;4.758;2023-07-28T08:43:11;25.20;58.60
11491;DHT22;5802;52.832;4.758;2023-07-28T08:45:38;25.20;58.70
11491;DHT22;5802;52.832;4.758;2023-07-28T08:48:05;25.30;58.60
11491;DHT22;5802;52.832;4.758;2023-07-28T08:50:32;25.30;58.60
11491;DHT22;5802;52.832;4.758;2023-07-28T08:53:00;25.30;60.10
11491;DHT22;5802;52.832;4.758;2023-07-28T08:55:27;25.40;58.50
11491;DHT22;5802;52.832;4.758;2023-07-28T08:57:54;25.40;58.30
11491;DHT22;5802;52.832;4.758;2023-07-28T09:00:21;25.50;58.30
11491;DHT22;5802;52.832;4.758;2023-07-28T09:02:50;25.50;58.30
11491;DHT22;5802;52.832;4.758;2023-07-28T09:05:18;25.50;58.20
11491;DHT22;5802;52.832;4.758;2023-07-28T09:07:45;25.50;57.90
11491;DHT22;5802;52.832;4.758;2023-07-28T09:10:13;25.60;57.90
11491;DHT22;5802;52.832;4.758;2023-07-28T09:12:45;25.60;57.90
11491;DHT22;5802;52.832;4.758;2023-07-28T09:15:12;25.60;57.70
11491;DHT22;5802;52.832;4.758;2023-07-28T09:17:42;25.60;57.70
11491;DHT22;5802;52.832;4.758;2023-07-28T09:20:13;25.60;57.80
11491;DHT22;5802;52.832;4.758;2023-07-28T09:22:40;25.60;57.70
11491;DHT22;5802;52.832;4.758;2023-07-28T09:25:13;25.60;57.80
11491;DHT22;5802;52.832;4.758;2023-07-28T09:27:41;25.60;57.80
11491;DHT22;5802;52.832;4.758;2023-07-28T09:30:16;25.60;57.70
11491;DHT22;5802;52.832;4.758;2023-07-28T09:32:47;25.60;57.90
11491;DHT22;5802;52.832;4.758;2023-07-28T09:35:16;25.60;57.80
11491;DHT22;5802;52.832;4.758;2023-07-28T09:37:44;25.60;57.90
11491;DHT22;5802;52.832;4.758;2023-07-28T09:40:12;25.60;58.20
11491;DHT22;5802;52.832;4.758;2023-07-28T09:42:41;25.60;58.80
11491;DHT22;5802;52.832;4.758;2023-07-28T09:45:09;25.60;59.10
11491;DHT22;5802;52.832;4.758;2023-07-28T09:47:37;25.60;65.80
11491;DHT22;5802;52.832;4.758;2023-07-28T09:50:05;25.60;66.00
11491;DHT22;5802;52.832;4.758;2023-07-28T09:52:34;25.60;58.40
11491;DHT22;5802;52.832;4.758;2023-07-28T09:55:06;25.70;58.00
11491;DHT22;5802;52.832;4.758;2023-07-28T09:57:38;25.70;57.80
11491;DHT22;5802;52.832;4.758;2023-07-28T10:00:10;25.70;57.80
11491;DHT22;5802;52.832;4.758;2023-07-28T10:02:38;25.70;57.70
11491;DHT22;5802;52.832;4.758;2023-07-28T10:05:07;25.70;57.60
11491;DHT22;5802;52.832;4.758;2023-07-28T10:07:34;25.70;57.70
11491;DHT22;5802;52.832;4.758;2023-07-28T10:10:04;25.70;57.90
11491;DHT22;5802;52.832;4.758;2023-07-28T10:12:39;25.70;58.00
11491;DHT22;5802;52.832;4.758;2023-07-28T10:15:12;25.70;57.90
11491;DHT22;5802;52.832;4.758;2023-07-28T10:17:43;25.70;58.00
11491;DHT22;5802;52.832;4.758;2023-07-28T10:20:32;25.70;57.80
11491;DHT22;5802;52.832;4.758;2023-07-28T10:23:09;25.70;58.00
11491;DHT22;5802;52.832;4.758;2023-07-28T10:25:38;25.70;58.20
11491;DHT22;5802;52.832;4.758;2023-07-28T10:28:06;25.80;58.30
11491;DHT22;5802;52.832;4.758;2023-07-28T10:30:36;25.80;58.30
11491;DHT22;5802;52.832;4.758;2023-07-28T10:33:04;25.80;58.40
11491;DHT22;5802;52.832;4.758;2023-07-28T10:35:31;25.80;58.30
11491;DHT22;5802;52.832;4.758;2023-07-28T10:38:28;25.80;58.30
11491;DHT22;5802;52.832;4.758;2023-07-28T10:41:09;25.70;64.60
11491;DHT22;5802;52.832;4.758;2023-07-28T10:43:37;25.80;58.60
11491;DHT22;5802;52.832;4.758;2023-07-28T10:46:07;25.80;58.70
11491;DHT22;5802;52.832;4.758;2023-07-28T10:48:35;25.80;58.90
11491;DHT22;5802;52.832;4.758;2023-07-28T10:51:02;25.80;59.10
11491;DHT22;5802;52.832;4.758;2023-07-28T10:53:29;25.80;59.00
11491;DHT22;5802;52.832;4.758;2023-07-28T10:55:58;25.80;59.00
11491;DHT22;5802;52.832;4.758;2023-07-28T10:58:25;25.80;59.00
11491;DHT22;5802;52.832;4.758;2023-07-28T11:00:51;25.80;59.00
11491;DHT22;5802;52.832;4.758;2023-07-28T11:03:19;25.80;58.90
11491;DHT22;5802;52.832;4.758;2023-07-28T11:05:48;25.90;59.10
11491;DHT22;5802;52.832;4.758;2023-07-28T11:08:16;25.90;59.10
11491;DHT22;5802;52.832;4.758;2023-07-28T11:10:42;25.80;59.20
11491;DHT22;5802;52.832;4.758;2023-07-28T11:13:10;25.90;62.80
11491;DHT22;5802;52.832;4.758;2023-07-28T11:15:37;25.90;67.80
11491;DHT22;5802;52.832;4.758;2023-07-28T11:18:04;25.90;67.30
11491;DHT22;5802;52.832;4.758;2023-07-28T11:20:33;25.90;58.90
11491;DHT22;5802;52.832;4.758;2023-07-28T11:23:01;25.90;58.80
11491;DHT22;5802;52.832;4.758;2023-07-28T11:25:32;25.90;58.70
11491;DHT22;5802;52.832;4.758;2023-07-28T11:28:01;25.90;58.60
11491;DHT22;5802;52.832;4.758;2023-07-28T11:30:31;25.90;58.40
11491;DHT22;5802;52.832;4.758;2023-07-28T11:32:59;26.00;58.50
11491;DHT22;5802;52.832;4.758;2023-07-28T11:35:28;26.00;58.60
11491;DHT22;5802;52.832;4.758;2023-07-28T11:37:57;26.00;58.40
11491;DHT22;5802;52.832;4.758;2023-07-28T11:40:24;26.00;58.30
11491;DHT22;5802;52.832;4.758;2023-07-28T11:42:53;26.00;58.40
11491;DHT22;5802;52.832;4.758;2023-07-28T11:45:21;26.00;58.80
11491;DHT22;5802;52.832;4.758;2023-07-28T11:47:55;26.00;59.10
11491;DHT22;5802;52.832;4.758;2023-07-28T11:50:26;26.00;59.10
11491;DHT22;5802;52.832;4.758;2023-07-28T11:52:53;26.00;59.30
11491;DHT22;5802;52.832;4.758;2023-07-28T11:55:22;26.00;62.70
11491;DHT22;5802;52.832;4.758;2023-07-28T11:57:49;26.20;63.40
11491;DHT22;5802;52.832;4.758;2023-07-28T12:00:16;26.00;59.10
11491;DHT22;5802;52.832;4.758;2023-07-28T12:02:44;26.10;59.10
11491;DHT22;5802;52.832;4.758;2023-07-28T12:05:15;26.10;59.00
11491;DHT22;5802;52.832;4.758;2023-07-28T12:07:47;26.10;58.90
11491;DHT22;5802;52.832;4.758;2023-07-28T12:10:14;26.10;58.90
11491;DHT22;5802;52.832;4.758;2023-07-28T12:12:45;26.10;58.80
11491;DHT22;5802;52.832;4.758;2023-07-28T12:15:23;26.10;58.80
11491;DHT22;5802;52.832;4.758;2023-07-28T12:18:06;26.10;59.50
11491;DHT22;5802;52.832;4.758;2023-07-28T12:20:34;26.10;63.20
11491;DHT22;5802;52.832;4.758;2023-07-28T12:23:01;26.10;68.50
11491;DHT22;5802;52.832;4.758;2023-07-28T12:25:28;26.10;60.30
11491;DHT22;5802;52.832;4.758;2023-07-28T12:27:57;26.00;58.50
11491;DHT22;5802;52.832;4.758;2023-07-28T12:30:24;26.00;58.50
11491;DHT22;5802;52.832;4.758;2023-07-28T12:32:50;26.00;58.50
11491;DHT22;5802;52.832;4.758;2023-07-28T12:35:17;26.00;58.60
11491;DHT22;5802;52.832;4.758;2023-07-28T12:37:44;26.00;59.20
11491;DHT22;5802;52.832;4.758;2023-07-28T12:40:11;26.00;59.70
11491;DHT22;5802;52.832;4.758;2023-07-28T12:42:38;26.10;64.10
11491;DHT22;5802;52.832;4.758;2023-07-28T12:45:07;26.00;67.70
11491;DHT22;5802;52.832;4.758;2023-07-28T12:47:34;25.90;71.80
11491;DHT22;5802;52.832;4.758;2023-07-28T12:50:01;26.00;60.60
11491;DHT22;5802;52.832;4.758;2023-07-28T12:52:29;26.00;58.40
11491;DHT22;5802;52.832;4.758;2023-07-28T12:54:56;26.00;58.40
11491;DHT22;5802;52.832;4.758;2023-07-28T12:57:24;26.00;58.40
11491;DHT22;5802;52.832;4.758;2023-07-28T12:59:50;26.00;58.40
11491;DHT22;5802;52.832;4.758;2023-07-28T13:02:18;26.00;58.30
11491;DHT22;5802;52.832;4.758;2023-07-28T13:04:45;26.00;58.30
11491;DHT22;5802;52.832;4.758;2023-07-28T13:07:12;26.00;58.30
11491;DHT22;5802;52.832;4.758;2023-07-28T13:09:39;25.90;58.20
11491;DHT22;5802;52.832;4.758;2023-07-28T13:12:07;25.90;58.20
11491;DHT22;5802;52.832;4.758;2023-07-28T13:14:34;25.90;58.10
11491;DHT22;5802;52.832;4.758;2023-07-28T13:17:00;25.90;58.10
11491;DHT22;5802;52.832;4.758;2023-07-28T13:19:28;26.00;58.10
11491;DHT22;5802;52.832;4.758;2023-07-28T13:21:55;25.90;58.00
11491;DHT22;5802;52.832;4.758;2023-07-28T13:24:22;25.90;58.00
11491;DHT22;5802;52.832;4.758;2023-07-28T13:26:48;25.90;58.00
11491;DHT22;5802;52.832;4.758;2023-07-28T13:29:15;26.00;58.00
11491;DHT22;5802;52.832;4.758;2023-07-28T13:31:44;25.90;57.90
11491;DHT22;5802;52.832;4.758;2023-07-28T13:34:11;25.90;57.90
11491;DHT22;5802;52.832;4.758;2023-07-28T13:36:39;25.90;57.90
11491;DHT22;5802;52.832;4.758;2023-07-28T13:39:06;25.90;58.50
11491;DHT22;5802;52.832;4.758;2023-07-28T13:41:32;25.90;57.90
11491;DHT22;5802;52.832;4.758;2023-07-28T13:43:59;25.90;57.80
11491;DHT22;5802;52.832;4.758;2023-07-28T13:46:26;25.90;57.80
11491;DHT22;5802;52.832;4.758;2023-07-28T13:48:52;25.90;57.80
11491;DHT22;5802;52.832;4.758;2023-07-28T13:51:19;25.90;57.90
11491;DHT22;5802;52.832;4.758;2023-07-28T13:53:48;25.90;57.80
11491;DHT22;5802;52.832;4.758;2023-07-28T13:56:14;25.90;57.80
11491;DHT22;5802;52.832;4.758;2023-07-28T13:58:41;25.90;57.90
11491;DHT22;5802;52.832;4.758;2023-07-28T14:01:08;25.90;57.80
11491;DHT22;5802;52.832;4.758;2023-07-28T14:03:34;26.00;57.90
11491;DHT22;5802;52.832;4.758;2023-07-28T14:06:01;26.00;58.00
11491;DHT22;5802;52.832;4.758;2023-07-28T14:08:28;26.00;57.90
11491;DHT22;5802;52.832;4.758;2023-07-28T14:10:56;25.90;57.90
11491;DHT22;5802;52.832;4.758;2023-07-28T14:13:22;26.00;57.90
11491;DHT22;5802;52.832;4.758;2023-07-28T14:15:49;26.00;58.00
11491;DHT22;5802;52.832;4.758;2023-07-28T14:18:16;25.90;58.00
11491;DHT22;5802;52.832;4.758;2023-07-28T14:20:43;25.90;58.10
11491;DHT22;5802;52.832;4.758;2023-07-28T14:23:21;25.90;58.10
11491;DHT22;5802;52.832;4.758;2023-07-28T14:25:48;25.90;58.20
11491;DHT22;5802;52.832;4.758;2023-07-28T14:28:16;26.00;58.30
11491;DHT22;5802;52.832;4.758;2023-07-28T14:30:43;26.00;58.20
11491;DHT22;5802;52.832;4.758;2023-07-28T14:33:12;26.00;58.20
11491;DHT22;5802;52.832;4.758;2023-07-28T14:35:39;26.00;58.20
11491;DHT22;5802;52.832;4.758;2023-07-28T14:38:06;26.00;58.20
11491;DHT22;5802;52.832;4.758;2023-07-28T14:40:32;26.00;58.20
11491;DHT22;5802;52.832;4.758;2023-07-28T14:42:59;26.00;58.10
11491;DHT22;5802;52.832;4.758;2023-07-28T14:45:27;26.00;58.10
11491;DHT22;5802;52.832;4.758;2023-07-28T14:47:54;26.00;58.10
11491;DHT22;5802;52.832;4.758;2023-07-28T14:50:21;26.00;59.20
11491;DHT22;5802;52.832;4.758;2023-07-28T14:52:48;26.10;60.60
11491;DHT22;5802;52.832;4.758;2023-07-28T14:55:14;26.10;57.80
11491;DHT22;5802;52.832;4.758;2023-07-28T14:57:41;26.10;57.70
11491;DHT22;5802;52.832;4.758;2023-07-28T15:00:09;26.10;57.60
11491;DHT22;5802;52.832;4.758;2023-07-28T15:02:37;26.10;57.50
11491;DHT22;5802;52.832;4.758;2023-07-28T15:05:04;26.10;57.40
11491;DHT22;5802;52.832;4.758;2023-07-28T15:07:31;26.10;57.40
11491;DHT22;5802;52.832;4.758;2023-07-28T15:09:57;26.20;57.40
11491;DHT22;5802;52.832;4.758;2023-07-28T15:12:24;26.20;57.30
11491;DHT22;5802;52.832;4.758;2023-07-28T15:14:51;26.20;57.20
11491;DHT22;5802;52.832;4.758;2023-07-28T15:17:17;26.20;57.20
11491;DHT22;5802;52.832;4.758;2023-07-28T15:19:45;26.20;57.20
11491;DHT22;5802;52.832;4.758;2023-07-28T15:22:12;26.20;57.10
11491;DHT22;5802;52.832;4.758;2023-07-28T15:24:39;26.20;57.00
11491;DHT22;5802;52.832;4.758;2023-07-28T15:27:06;26.20;57.00
11491;DHT22;5802;52.832;4.758;2023-07-28T15:29:33;26.20;56.90
11491;DHT22;5802;52.832;4.758;2023-07-28T15:31:59;26.20;56.90
11491;DHT22;5802;52.832;4.758;2023-07-28T15:34:26;26.20;56.80
11491;DHT22;5802;52.832;4.758;2023-07-28T15:36:55;26.20;56.80
11491;DHT22;5802;52.832;4.758;2023-07-28T15:39:23;26.20;56.80
11491;DHT22;5802;52.832;4.758;2023-07-28T15:41:50;26.20;56.90
11491;DHT22;5802;52.832;4.758;2023-07-28T15:44:16;26.20;56.90
11491;DHT22;5802;52.832;4.758;2023-07-28T15:46:43;26.20;56.90